sensor_id;sensor_type;location;lat;lon;timestamp;temperature;humidity
20610;DHT22;10463;52.378;9.688;2023-04-24T00:00:36;27.00;23.80
20610;DHT22;10463;52.378;9.688;2023-04-24T00:03:22;27.00;23.30
20610;DHT22;10463;52.378;9.688;2023-04-24T00:06:07;27.00;23.30
20610;DHT22;10463;52.378;9.688;2023-04-24T00:08:53;27.00;23.30
20610;DHT22;10463;52.378;9.688;2023-04-24T00:11:38;27.00;23.30
20610;DHT22;10463;52.378;9.688;2023-04-24T00:14:22;27.00;23.30
20610;DHT22;10463;52.378;9.688;2023-04-24T00:17:07;27.00;23.30
20610;DHT22;10463;52.378;9.688;2023-04-24T00:19:52;27.00;23.30
20610;DHT22;10463;52.378;9.688;2023-04-24T00:22:42;27.00;23.30
20610;DHT22;10463;52.378;9.688;2023-04-24T00:25:29;27.00;23.30
20610;DHT22;10463;52.378;9.688;2023-04-24T00:28:13;27.00;23.30
20610;DHT22;10463;52.378;9.688;2023-04-24T00:30:59;26.90;23.30
20610;DHT22;10463;52.378;9.688;2023-04-24T00:33:44;26.90;23.30
20610;DHT22;10463;52.378;9.688;2023-04-24T00:36:28;26.90;23.30
20610;DHT22;10463;52.378;9.688;2023-04-24T00:39:13;27.00;23.30
20610;DHT22;10463;52.378;9.688;2023-04-24T00:41:59;27.00;23.30
20610;DHT22;10463;52.378;9.688;2023-04-24T00:44:46;27.00;23.30
20610;DHT22;10463;52.378;9.688;2023-04-24T00:47:32;27.00;23.30
20610;DHT22;10463;52.378;9.688;2023-04-24T00:50:18;27.00;23.30
20610;DHT22;10463;52.378;9.688;2023-04-24T00:53:04;27.00;23.30
20610;DHT22;10463;52.378;9.688;2023-04-24T00:55:49;27.00;23.30
20610;DHT22;10463;52.378;9.688;2023-04-24T00:58:36;26.90;23.30
20610;DHT22;10463;52.378;9.688;2023-04-24T01:01:21;26.90;23.30
20610;DHT22;10463;52.378;9.688;2023-04-24T01:04:06;26.90;23.30
20610;DHT22;10463;52.378;9.688;2023-04-24T01:06:52;26.90;23.30
20610;DHT22;10463;52.378;9.688;2023-04-24T01:09:38;26.90;23.30
20610;DHT22;10463;52.378;9.688;2023-04-24T01:12:25;26.90;23.30
20610;DHT22;10463;52.378;9.688;2023-04-24T01:15:11;26.90;23.30
20610;DHT22;10463;52.378;9.688;2023-04-24T01:17:56;26.90;23.30
20610;DHT22;10463;52.378;9.688;2023-04-24T01:20:42;26.90;23.80
20610;DHT22;10463;52.378;9.688;2023-04-24T01:23:30;26.90;23.30
20610;DHT22;10463;52.378;9.688;2023-04-24T01:26:17;26.90;23.30
20610;DHT22;10463;52.378;9.688;2023-04-24T01:29:04;26.90;23.30
20610;DHT22;10463;52.378;9.688;2023-04-24T01:31:49;26.90;23.30
20610;DHT22;10463;52.378;9.688;2023-04-24T01:34:34;26.90;23.30
20610;DHT22;10463;52.378;9.688;2023-04-24T01:37:19;26.90;23.30
20610;DHT22;10463;52.378;9.688;2023-04-24T01:40:07;26.90;23.30
20610;DHT22;10463;52.378;9.688;2023-04-24T01:42:52;26.80;23.20
20610;DHT22;10463;52.378;9.688;2023-04-24T01:45:37;26.90;23.30
20610;DHT22;10463;52.378;9.688;2023-04-24T01:48:22;26.90;23.30
20610;DHT22;10463;52.378;9.688;2023-04-24T01:51:07;26.80;23.20
20610;DHT22;10463;52.378;9.688;2023-04-24T01:53:53;26.90;23.30
20610;DHT22;10463;52.378;9.688;2023-04-24T01:56:41;26.90;23.30
20610;DHT22;10463;52.378;9.688;2023-04-24T01:59:28;26.90;23.30
20610;DHT22;10463;52.378;9.688;2023-04-24T02:02:13;26.80;23.20
20610;DHT22;10463;52.378;9.688;2023-04-24T02:04:58;26.80;23.20
20610;DHT22;10463;52.378;9.688;2023-04-24T02:07:42;26.80;23.20
20610;DHT22;10463;52.378;9.688;2023-04-24T02:10:28;26.80;23.20
20610;DHT22;10463;52.378;9.688;2023-04-24T02:13:14;26.80;23.20
20610;DHT22;10463;52.378;9.688;2023-04-24T02:15:58;26.80;23.20
20610;DHT22;10463;52.378;9.688;2023-04-24T02:18:43;26.80;23.20
20610;DHT22;10463;52.378;9.688;2023-04-24T02:21:28;26.80;23.20
20610;DHT22;10463;52.378;9.688;2023-04-24T02:24:13;26.80;23.20
20610;DHT22;10463;52.378;9.688;2023-04-24T02:26:57;26.80;23.20
20610;DHT22;10463;52.378;9.688;2023-04-24T02:29:44;26.80;23.20
20610;DHT22;10463;52.378;9.688;2023-04-24T02:32:29;26.80;23.20
20610;DHT22;10463;52.378;9.688;2023-04-24T02:35:15;26.80;23.20
20610;DHT22;10463;52.378;9.688;2023-04-24T02:38:00;26.80;23.20
20610;DHT22;10463;52.378;9.688;2023-04-24T02:40:45;26.80;23.20
20610;DHT22;10463;52.378;9.688;2023-04-24T02:43:29;26.80;23.20
20610;DHT22;10463;52.378;9.688;2023-04-24T02:46:16;26.80;23.20
20610;DHT22;10463;52.378;9.688;2023-04-24T02:49:01;26.80;23.20
20610;DHT22;10463;52.378;9.688;2023-04-24T02:51:46;26.80;23.20
20610;DHT22;10463;52.378;9.688;2023-04-24T02:54:31;26.80;23.20
20610;DHT22;10463;52.378;9.688;2023-04-24T02:57:15;26.80;23.20
20610;DHT22;10463;52.378;9.688;2023-04-24T03:00:01;26.80;23.20
20610;DHT22;10463;52.378;9.688;2023-04-24T03:02:49;26.80;23.20
20610;DHT22;10463;52.378;9.688;2023-04-24T03:05:34;26.70;23.20
20610;DHT22;10463;52.378;9.688;2023-04-24T03:08:19;26.80;23.20
20610;DHT22;10463;52.378;9.688;2023-04-24T03:11:04;26.80;23.20
20610;DHT22;10463;52.378;9.688;2023-04-24T03:13:49;26.80;23.20
20610;DHT22;10463;52.378;9.688;2023-04-24T03:16:34;26.70;23.20
20610;DHT22;10463;52.378;9.688;2023-04-24T03:19:20;26.70;23.20
20610;DHT22;10463;52.378;9.688;2023-04-24T03:22:26;26.70;23.20
20610;DHT22;10463;52.378;9.688;2023-04-24T03:25:11;26.70;23.20
20610;DHT22;10463;52.378;9.688;2023-04-24T03:27:56;26.70;23.20
20610;DHT22;10463;52.378;9.688;2023-04-24T03:30:52;26.70;23.20
20610;DHT22;10463;52.378;9.688;2023-04-24T03:33:38;26.70;23.20
20610;DHT22;10463;52.378;9.688;2023-04-24T03:36:24;26.70;23.20
20610;DHT22;10463;52.378;9.688;2023-04-24T03:39:08;26.70;23.20
20610;DHT22;10463;52.378;9.688;2023-04-24T03:41:55;26.70;23.20
20610;DHT22;10463;52.378;9.688;2023-04-24T03:44:45;26.70;23.20
20610;DHT22;10463;52.378;9.688;2023-04-24T03:47:30;26.70;23.20
20610;DHT22;10463;52.378;9.688;2023-04-24T03:50:17;26.70;23.20
20610;DHT22;10463;52.378;9.688;2023-04-24T03:53:04;26.70;23.20
20610;DHT22;10463;52.378;9.688;2023-04-24T03:55:55;26.60;23.10
20610;DHT22;10463;52.378;9.688;2023-04-24T03:58:40;26.70;23.20
20610;DHT22;10463;52.378;9.688;2023-04-24T04:01:25;26.70;23.20
20610;DHT22;10463;52.378;9.688;2023-04-24T04:04:16;26.70;23.20
20610;DHT22;10463;52.378;9.688;2023-04-24T04:07:02;26.70;23.20
20610;DHT22;10463;52.378;9.688;2023-04-24T04:09:50;26.60;23.10
20610;DHT22;10463;52.378;9.688;2023-04-24T04:12:35;26.60;23.10
20610;DHT22;10463;52.378;9.688;2023-04-24T04:15:19;26.60;23.10
20610;DHT22;10463;52.378;9.688;2023-04-24T04:18:05;26.60;23.10
20610;DHT22;10463;52.378;9.688;2023-04-24T04:20:50;26.60;23.10
20610;DHT22;10463;52.378;9.688;2023-04-24T04:23:35;26.60;23.10
20610;DHT22;10463;52.378;9.688;2023-04-24T04:26:32;26.60;23.10
20610;DHT22;10463;52.378;9.688;2023-04-24T04:29:21;26.60;23.10
20610;DHT22;10463;52.378;9.688;2023-04-24T04:32:08;26.60;23.10
20610;DHT22;10463;52.378;9.688;2023-04-24T04:34:53;26.60;23.10
20610;DHT22;10463;52.378;9.688;2023-04-24T04:37:39;26.60;23.10
20610;DHT22;10463;52.378;9.688;2023-04-24T04:40:46;26.60;23.10
20610;DHT22;10463;52.378;9.688;2023-04-24T04:43:34;26.60;23.10
20610;DHT22;10463;52.378;9.688;2023-04-24T04:46:19;26.60;23.10
20610;DHT22;10463;52.378;9.688;2023-04-24T04:49:39;26.60;23.10
20610;DHT22;10463;52.378;9.688;2023-04-24T04:52:28;26.60;23.10
20610;DHT22;10463;52.378;9.688;2023-04-24T04:55:25;26.60;23.10
20610;DHT22;10463;52.378;9.688;2023-04-24T04:58:26;26.60;23.10
20610;DHT22;10463;52.378;9.688;2023-04-24T05:01:16;26.60;23.10
20610;DHT22;10463;52.378;9.688;2023-04-24T05:04:04;26.60;23.10
20610;DHT22;10463;52.378;9.688;2023-04-24T05:06:49;26.60;23.10
20610;DHT22;10463;52.378;9.688;2023-04-24T05:09:36;26.50;23.00
20610;DHT22;10463;52.378;9.688;2023-04-24T05:12:24;26.60;23.10
20610;DHT22;10463;52.378;9.688;2023-04-24T05:15:11;26.50;23.00
20610;DHT22;10463;52.378;9.688;2023-04-24T05:17:57;26.50;23.00
20610;DHT22;10463;52.378;9.688;2023-04-24T05:20:42;26.50;23.00
20610;DHT22;10463;52.378;9.688;2023-04-24T05:23:29;26.50;23.00
20610;DHT22;10463;52.378;9.688;2023-04-24T05:26:15;26.50;23.00
20610;DHT22;10463;52.378;9.688;2023-04-24T05:29:00;26.50;23.00
20610;DHT22;10463;52.378;9.688;2023-04-24T05:31:45;26.50;23.00
20610;DHT22;10463;52.378;9.688;2023-04-24T05:34:31;26.50;23.10
20610;DHT22;10463;52.378;9.688;2023-04-24T05:37:16;26.50;23.00
20610;DHT22;10463;52.378;9.688;2023-04-24T05:40:01;26.50;23.00
20610;DHT22;10463;52.378;9.688;2023-04-24T05:42:46;26.50;23.00
20610;DHT22;10463;52.378;9.688;2023-04-24T05:45:30;26.50;23.00
20610;DHT22;10463;52.378;9.688;2023-04-24T05:48:16;26.50;23.00
20610;DHT22;10463;52.378;9.688;2023-04-24T05:51:02;26.50;23.00
20610;DHT22;10463;52.378;9.688;2023-04-24T05:53:47;26.40;23.00
20610;DHT22;10463;52.378;9.688;2023-04-24T05:56:32;26.50;23.00
20610;DHT22;10463;52.378;9.688;2023-04-24T05:59:19;26.50;23.00
20610;DHT22;10463;52.378;9.688;2023-04-24T06:02:04;26.50;23.00
20610;DHT22;10463;52.378;9.688;2023-04-24T06:04:50;26.50;23.10
20610;DHT22;10463;52.378;9.688;2023-04-24T06:07:37;26.50;23.00
20610;DHT22;10463;52.378;9.688;2023-04-24T06:10:24;26.50;23.00
20610;DHT22;10463;52.378;9.688;2023-04-24T06:13:10;26.50;23.10
20610;DHT22;10463;52.378;9.688;2023-04-24T06:15:59;26.50;23.00
20610;DHT22;10463;52.378;9.688;2023-04-24T06:18:52;26.50;23.00
20610;DHT22;10463;52.378;9.688;2023-04-24T06:21:38;26.50;23.00
20610;DHT22;10463;52.378;9.688;2023-04-24T06:24:28;26.40;23.00
20610;DHT22;10463;52.378;9.688;2023-04-24T06:27:13;26.50;23.00
20610;DHT22;10463;52.378;9.688;2023-04-24T06:29:59;26.50;23.00
20610;DHT22;10463;52.378;9.688;2023-04-24T06:32:43;26.50;23.00
20610;DHT22;10463;52.378;9.688;2023-04-24T06:35:28;26.50;23.00
20610;DHT22;10463;52.378;9.688;2023-04-24T06:38:13;26.50;23.00
20610;DHT22;10463;52.378;9.688;2023-04-24T06:40:59;26.50;23.00
20610;DHT22;10463;52.378;9.688;2023-04-24T06:43:44;26.50;23.00
20610;DHT22;10463;52.378;9.688;2023-04-24T06:46:29;26.50;23.00
20610;DHT22;10463;52.378;9.688;2023-04-24T06:49:14;26.40;23.00
20610;DHT22;10463;52.378;9.688;2023-04-24T06:52:00;26.50;23.00
20610;DHT22;10463;52.378;9.688;2023-04-24T06:54:45;26.50;23.00
20610;DHT22;10463;52.378;9.688;2023-04-24T06:57:31;26.40;23.00
20610;DHT22;10463;52.378;9.688;2023-04-24T07:00:16;26.40;23.00
20610;DHT22;10463;52.378;9.688;2023-04-24T07:03:01;26.50;23.00
20610;DHT22;10463;52.378;9.688;2023-04-24T07:05:48;26.40;23.00
20610;DHT22;10463;52.378;9.688;2023-04-24T07:08:33;26.40;23.00
20610;DHT22;10463;52.378;9.688;2023-04-24T07:11:18;26.40;23.00
20610;DHT22;10463;52.378;9.688;2023-04-24T07:14:04;26.40;23.00
20610;DHT22;10463;52.378;9.688;2023-04-24T07:16:48;26.40;23.00
20610;DHT22;10463;52.378;9.688;2023-04-24T07:19:34;26.40;23.00
20610;DHT22;10463;52.378;9.688;2023-04-24T07:22:22;26.40;23.00
20610;DHT22;10463;52.378;9.688;2023-04-24T07:25:08;26.40;23.10
20610;DHT22;10463;52.378;9.688;2023-04-24T07:27:53;26.40;23.00
20610;DHT22;10463;52.378;9.688;2023-04-24T07:30:39;26.40;23.00
20610;DHT22;10463;52.378;9.688;2023-04-24T07:33:24;26.40;23.00
20610;DHT22;10463;52.378;9.688;2023-04-24T07:36:09;26.40;23.00
20610;DHT22;10463;52.378;9.688;2023-04-24T07:39:00;26.40;23.00
20610;DHT22;10463;52.378;9.688;2023-04-24T07:41:44;26.40;23.00
20610;DHT22;10463;52.378;9.688;2023-04-24T07:44:29;26.50;23.10
20610;DHT22;10463;52.378;9.688;2023-04-24T07:47:15;26.50;23.10
20610;DHT22;10463;52.378;9.688;2023-04-24T07:50:00;26.50;23.00
20610;DHT22;10463;52.378;9.688;2023-04-24T07:52:45;26.50;23.10
20610;DHT22;10463;52.378;9.688;2023-04-24T07:55:30;26.40;23.00
20610;DHT22;10463;52.378;9.688;2023-04-24T07:58:15;26.50;23.00
20610;DHT22;10463;52.378;9.688;2023-04-24T08:01:00;26.40;23.00
20610;DHT22;10463;52.378;9.688;2023-04-24T08:03:46;26.50;23.00
20610;DHT22;10463;52.378;9.688;2023-04-24T08:06:31;26.50;23.00
20610;DHT22;10463;52.378;9.688;2023-04-24T08:09:16;26.40;23.00
20610;DHT22;10463;52.378;9.688;2023-04-24T08:12:01;26.40;23.00
20610;DHT22;10463;52.378;9.688;2023-04-24T08:14:46;26.40;23.00
20610;DHT22;10463;52.378;9.688;2023-04-24T08:17:31;26.40;23.00
20610;DHT22;10463;52.378;9.688;2023-04-24T08:20:17;26.50;23.00
20610;DHT22;10463;52.378;9.688;2023-04-24T08:23:01;26.50;23.00
20610;DHT22;10463;52.378;9.688;2023-04-24T08:25:46;26.50;23.00
20610;DHT22;10463;52.378;9.688;2023-04-24T08:28:31;26.50;23.00
20610;DHT22;10463;52.378;9.688;2023-04-24T08:31:15;26.50;23.00
20610;DHT22;10463;52.378;9.688;2023-04-24T08:34:01;26.50;23.00
20610;DHT22;10463;52.378;9.688;2023-04-24T08:36:47;26.50;23.00
20610;DHT22;10463;52.378;9.688;2023-04-24T08:39:32;26.50;23.00
20610;DHT22;10463;52.378;9.688;2023-04-24T08:42:18;26.50;23.00
20610;DHT22;10463;52.378;9.688;2023-04-24T08:45:05;26.50;23.00
20610;DHT22;10463;52.378;9.688;2023-04-24T08:47:52;26.50;23.10
20610;DHT22;10463;52.378;9.688;2023-04-24T08:50:38;26.50;23.00
20610;DHT22;10463;52.378;9.688;2023-04-24T08:53:27;26.50;23.00
20610;DHT22;10463;52.378;9.688;2023-04-24T08:56:12;26.50;23.00
20610;DHT22;10463;52.378;9.688;2023-04-24T08:58:57;26.50;23.00
20610;DHT22;10463;52.378;9.688;2023-04-24T09:01:43;26.50;23.00
20610;DHT22;10463;52.378;9.688;2023-04-24T09:04:29;26.50;23.00
20610;DHT22;10463;52.378;9.688;2023-04-24T09:07:16;26.50;23.00
20610;DHT22;10463;52.378;9.688;2023-04-24T09:10:05;26.50;23.00
20610;DHT22;10463;52.378;9.688;2023-04-24T09:12:52;26.50;23.00
20610;DHT22;10463;52.378;9.688;2023-04-24T09:15:37;26.50;23.00
20610;DHT22;10463;52.378;9.688;2023-04-24T09:18:22;26.50;23.10
20610;DHT22;10463;52.378;9.688;2023-04-24T09:21:08;26.50;23.00
20610;DHT22;10463;52.378;9.688;2023-04-24T09:24:01;26.50;23.00
20610;DHT22;10463;52.378;9.688;2023-04-24T09:26:49;26.50;23.00
20610;DHT22;10463;52.378;9.688;2023-04-24T09:29:54;26.50;23.00
20610;DHT22;10463;52.378;9.688;2023-04-24T09:32:39;26.50;23.00
20610;DHT22;10463;52.378;9.688;2023-04-24T09:35:24;26.50;23.00
20610;DHT22;10463;52.378;9.688;2023-04-24T09:38:10;26.50;23.00
20610;DHT22;10463;52.378;9.688;2023-04-24T09:40:55;26.50;23.00
20610;DHT22;10463;52.378;9.688;2023-04-24T09:43:41;26.50;23.00
20610;DHT22;10463;52.378;9.688;2023-04-24T09:46:33;26.50;23.00
20610;DHT22;10463;52.378;9.688;2023-04-24T09:49:23;26.50;23.00
20610;DHT22;10463;52.378;9.688;2023-04-24T09:52:10;26.50;23.00
20610;DHT22;10463;52.378;9.688;2023-04-24T09:54:55;26.50;23.00
20610;DHT22;10463;52.378;9.688;2023-04-24T09:57:49;26.50;23.00
20610;DHT22;10463;52.378;9.688;2023-04-24T10:00:35;26.50;23.00
20610;DHT22;10463;52.378;9.688;2023-04-24T10:03:20;26.60;23.10
20610;DHT22;10463;52.378;9.688;2023-04-24T10:06:06;26.50;23.00
20610;DHT22;10463;52.378;9.688;2023-04-24T10:08:53;26.50;23.00
20610;DHT22;10463;52.378;9.688;2023-04-24T10:11:41;26.50;23.00
20610;DHT22;10463;52.378;9.688;2023-04-24T10:14:26;26.60;23.10
20610;DHT22;10463;52.378;9.688;2023-04-24T10:17:14;26.60;23.10
20610;DHT22;10463;52.378;9.688;2023-04-24T10:20:00;26.50;23.00
20610;DHT22;10463;52.378;9.688;2023-04-24T10:22:48;26.60;23.10
20610;DHT22;10463;52.378;9.688;2023-04-24T10:25:36;26.60;23.10
20610;DHT22;10463;52.378;9.688;2023-04-24T10:28:22;26.60;23.10
20610;DHT22;10463;52.378;9.688;2023-04-24T10:31:09;26.50;23.00
20610;DHT22;10463;52.378;9.688;2023-04-24T10:33:56;26.60;23.10
20610;DHT22;10463;52.378;9.688;2023-04-24T10:36:47;26.60;23.10
20610;DHT22;10463;52.378;9.688;2023-04-24T10:39:33;26.50;23.00
20610;DHT22;10463;52.378;9.688;2023-04-24T10:42:19;26.50;23.00
20610;DHT22;10463;52.378;9.688;2023-04-24T10:45:06;26.60;23.10
20610;DHT22;10463;52.378;9.688;2023-04-24T10:47:59;26.60;23.10
20610;DHT22;10463;52.378;9.688;2023-04-24T10:50:51;26.50;23.00
20610;DHT22;10463;52.378;9.688;2023-04-24T10:53:36;26.60;23.10
20610;DHT22;10463;52.378;9.688;2023-04-24T10:56:21;26.60;23.10
20610;DHT22;10463;52.378;9.688;2023-04-24T10:59:08;26.60;23.10
20610;DHT22;10463;52.378;9.688;2023-04-24T11:01:55;26.50;23.00
20610;DHT22;10463;52.378;9.688;2023-04-24T11:04:40;26.50;23.00
20610;DHT22;10463;52.378;9.688;2023-04-24T11:07:28;26.60;23.10
20610;DHT22;10463;52.378;9.688;2023-04-24T11:10:25;26.50;23.00
20610;DHT22;10463;52.378;9.688;2023-04-24T11:13:10;26.50;23.00
20610;DHT22;10463;52.378;9.688;2023-04-24T11:16:15;26.60;23.10
20610;DHT22;10463;52.378;9.688;2023-04-24T11:19:03;26.50;23.00
20610;DHT22;10463;52.378;9.688;2023-04-24T11:21:57;26.60;23.10
20610;DHT22;10463;52.378;9.688;2023-04-24T11:24:53;26.50;23.00
20610;DHT22;10463;52.378;9.688;2023-04-24T11:27:45;26.60;23.10
20610;DHT22;10463;52.378;9.688;2023-04-24T11:30:32;26.60;23.10
20610;DHT22;10463;52.378;9.688;2023-04-24T11:33:20;26.60;23.10
20610;DHT22;10463;52.378;9.688;2023-04-24T11:36:06;26.50;23.00
20610;DHT22;10463;52.378;9.688;2023-04-24T11:38:51;26.50;23.00
20610;DHT22;10463;52.378;9.688;2023-04-24T11:41:38;26.50;23.00
20610;DHT22;10463;52.378;9.688;2023-04-24T11:44:24;26.50;23.00
20610;DHT22;10463;52.378;9.688;2023-04-24T11:47:09;26.50;23.00
20610;DHT22;10463;52.378;9.688;2023-04-24T11:49:54;26.50;23.00
20610;DHT22;10463;52.378;9.688;2023-04-24T11:52:41;26.50;23.00
20610;DHT22;10463;52.378;9.688;2023-04-24T11:55:28;26.50;23.00
20610;DHT22;10463;52.378;9.688;2023-04-24T11:58:14;26.50;23.10
20610;DHT22;10463;52.378;9.688;2023-04-24T12:00:59;26.50;23.00
20610;DHT22;10463;52.378;9.688;2023-04-24T12:03:48;26.50;23.00
20610;DHT22;10463;52.378;9.688;2023-04-24T12:06:33;26.50;23.00
20610;DHT22;10463;52.378;9.688;2023-04-24T12:09:18;26.50;23.00
20610;DHT22;10463;52.378;9.688;2023-04-24T12:12:06;26.50;23.00
20610;DHT22;10463;52.378;9.688;2023-04-24T12:14:55;26.50;23.00
20610;DHT22;10463;52.378;9.688;2023-04-24T12:17:41;26.50;23.00
20610;DHT22;10463;52.378;9.688;2023-04-24T12:20:29;26.50;23.00
20610;DHT22;10463;52.378;9.688;2023-04-24T12:23:15;26.50;23.00
20610;DHT22;10463;52.378;9.688;2023-04-24T12:26:00;26.50;23.00
20610;DHT22;10463;52.378;9.688;2023-04-24T12:28:48;26.50;23.00
20610;DHT22;10463;52.378;9.688;2023-04-24T12:31:35;26.50;23.00
20610;DHT22;10463;52.378;9.688;2023-04-24T12:34:20;26.50;23.00
20610;DHT22;10463;52.378;9.688;2023-04-24T12:37:10;26.50;23.00
20610;DHT22;10463;52.378;9.688;2023-04-24T12:40:04;26.50;23.00
20610;DHT22;10463;52.378;9.688;2023-04-24T12:42:51;26.50;23.00
20610;DHT22;10463;52.378;9.688;2023-04-24T12:45:36;26.50;23.00
20610;DHT22;10463;52.378;9.688;2023-04-24T12:48:22;26.50;23.00
20610;DHT22;10463;52.378;9.688;2023-04-24T12:51:07;26.50;23.00
20610;DHT22;10463;52.378;9.688;2023-04-24T12:53:52;26.50;23.00
20610;DHT22;10463;52.378;9.688;2023-04-24T12:56:37;26.50;23.00
20610;DHT22;10463;52.378;9.688;2023-04-24T12:59:24;26.50;23.00
20610;DHT22;10463;52.378;9.688;2023-04-24T13:02:08;26.50;22.90
20610;DHT22;10463;52.378;9.688;2023-04-24T13:04:55;26.50;22.90
20610;DHT22;10463;52.378;9.688;2023-04-24T13:07:40;26.50;22.90
20610;DHT22;10463;52.378;9.688;2023-04-24T13:10:25;26.50;22.90
20610;DHT22;10463;52.378;9.688;2023-04-24T13:13:10;26.50;22.90
20610;DHT22;10463;52.378;9.688;2023-04-24T13:15:54;26.50;22.80
20610;DHT22;10463;52.378;9.688;2023-04-24T13:18:39;26.50;22.80
20610;DHT22;10463;52.378;9.688;2023-04-24T13:21:25;26.50;22.80
20610;DHT22;10463;52.378;9.688;2023-04-24T13:24:11;26.40;22.80
20610;DHT22;10463;52.378;9.688;2023-04-24T13:26:55;26.50;22.80
20610;DHT22;10463;52.378;9.688;2023-04-24T13:29:41;26.50;22.80
20610;DHT22;10463;52.378;9.688;2023-04-24T13:32:26;26.50;22.80
20610;DHT22;10463;52.378;9.688;2023-04-24T13:35:11;26.50;22.80
20610;DHT22;10463;52.378;9.688;2023-04-24T13:37:58;26.40;22.80
20610;DHT22;10463;52.378;9.688;2023-04-24T13:40:42;26.50;22.80
20610;DHT22;10463;52.378;9.688;2023-04-24T13:43:27;26.50;22.80
20610;DHT22;10463;52.378;9.688;2023-04-24T13:46:11;26.40;22.80
20610;DHT22;10463;52.378;9.688;2023-04-24T13:48:56;26.50;22.80
20610;DHT22;10463;52.378;9.688;2023-04-24T13:51:42;26.50;22.80
20610;DHT22;10463;52.378;9.688;2023-04-24T13:54:28;26.50;22.80
20610;DHT22;10463;52.378;9.688;2023-04-24T13:57:14;26.40;22.80
20610;DHT22;10463;52.378;9.688;2023-04-24T13:59:59;26.40;22.80
20610;DHT22;10463;52.378;9.688;2023-04-24T14:02:52;26.40;22.80
20610;DHT22;10463;52.378;9.688;2023-04-24T14:05:36;26.40;22.80
20610;DHT22;10463;52.378;9.688;2023-04-24T14:08:21;26.40;22.80
20610;DHT22;10463;52.378;9.688;2023-04-24T14:11:07;26.40;22.80
20610;DHT22;10463;52.378;9.688;2023-04-24T14:13:51;26.40;22.80
20610;DHT22;10463;52.378;9.688;2023-04-24T14:16:36;26.40;22.80
20610;DHT22;10463;52.378;9.688;2023-04-24T14:19:21;26.40;22.80
20610;DHT22;10463;52.378;9.688;2023-04-24T14:22:06;26.40;22.80
20610;DHT22;10463;52.378;9.688;2023-04-24T14:24:51;26.40;22.80
20610;DHT22;10463;52.378;9.688;2023-04-24T14:27:37;26.40;22.80
20610;DHT22;10463;52.378;9.688;2023-04-24T14:30:22;26.40;22.80
20610;DHT22;10463;52.378;9.688;2023-04-24T14:33:07;26.40;22.80
20610;DHT22;10463;52.378;9.688;2023-04-24T14:35:51;26.40;22.90
20610;DHT22;10463;52.378;9.688;2023-04-24T14:38:36;26.40;22.80
20610;DHT22;10463;52.378;9.688;2023-04-24T14:41:21;26.40;22.80
20610;DHT22;10463;52.378;9.688;2023-04-24T14:44:07;26.40;22.90
20610;DHT22;10463;52.378;9.688;2023-04-24T14:46:52;26.40;22.90
20610;DHT22;10463;52.378;9.688;2023-04-24T14:49:38;26.40;22.90
20610;DHT22;10463;52.378;9.688;2023-04-24T14:52:22;26.40;22.90
20610;DHT22;10463;52.378;9.688;2023-04-24T14:55:09;26.40;22.90
20610;DHT22;10463;52.378;9.688;2023-04-24T14:57:53;26.40;22.90
20610;DHT22;10463;52.378;9.688;2023-04-24T15:00:40;26.40;22.90
20610;DHT22;10463;52.378;9.688;2023-04-24T15:03:24;26.40;22.90
20610;DHT22;10463;52.378;9.688;2023-04-24T15:06:11;26.40;22.90
20610;DHT22;10463;52.378;9.688;2023-04-24T15:08:55;26.40;22.90
20610;DHT22;10463;52.378;9.688;2023-04-24T15:11:40;26.40;23.00
20610;DHT22;10463;52.378;9.688;2023-04-24T15:14:25;26.40;22.90
20610;DHT22;10463;52.378;9.688;2023-04-24T15:17:11;26.40;22.90
20610;DHT22;10463;52.378;9.688;2023-04-24T15:19:56;26.40;22.90
20610;DHT22;10463;52.378;9.688;2023-04-24T15:22:41;26.30;22.90
20610;DHT22;10463;52.378;9.688;2023-04-24T15:25:26;26.30;22.90
20610;DHT22;10463;52.378;9.688;2023-04-24T15:28:11;26.30;22.90
20610;DHT22;10463;52.378;9.688;2023-04-24T15:30:55;26.30;22.90
20610;DHT22;10463;52.378;9.688;2023-04-24T15:33:41;26.30;22.90
20610;DHT22;10463;52.378;9.688;2023-04-24T15:36:27;26.30;22.90
20610;DHT22;10463;52.378;9.688;2023-04-24T15:39:11;26.30;23.50
20610;DHT22;10463;52.378;9.688;2023-04-24T15:41:59;26.30;22.90
20610;DHT22;10463;52.378;9.688;2023-04-24T15:44:44;26.30;23.50
20610;DHT22;10463;52.378;9.688;2023-04-24T15:47:29;26.30;22.90
20610;DHT22;10463;52.378;9.688;2023-04-24T15:50:16;26.30;22.90
20610;DHT22;10463;52.378;9.688;2023-04-24T15:53:01;26.30;22.90
20610;DHT22;10463;52.378;9.688;2023-04-24T15:55:45;26.30;22.90
20610;DHT22;10463;52.378;9.688;2023-04-24T15:58:30;26.30;22.90
20610;DHT22;10463;52.378;9.688;2023-04-24T16:01:15;26.30;22.90
20610;DHT22;10463;52.378;9.688;2023-04-24T16:04:00;26.30;22.90
20610;DHT22;10463;52.378;9.688;2023-04-24T16:06:46;26.30;22.90
20610;DHT22;10463;52.378;9.688;2023-04-24T16:09:31;26.30;22.90
20610;DHT22;10463;52.378;9.688;2023-04-24T16:12:16;26.30;22.90
20610;DHT22;10463;52.378;9.688;2023-04-24T16:15:01;26.30;22.90
20610;DHT22;10463;52.378;9.688;2023-04-24T16:17:48;26.30;22.90
20610;DHT22;10463;52.378;9.688;2023-04-24T16:20:32;26.30;22.90
20610;DHT22;10463;52.378;9.688;2023-04-24T16:23:18;26.30;22.90
20610;DHT22;10463;52.378;9.688;2023-04-24T16:26:04;26.30;22.90
20610;DHT22;10463;52.378;9.688;2023-04-24T16:28:49;26.30;22.90
20610;DHT22;10463;52.378;9.688;2023-04-24T16:31:34;26.30;22.90
20610;DHT22;10463;52.378;9.688;2023-04-24T16:34:19;26.30;22.90
20610;DHT22;10463;52.378;9.688;2023-04-24T16:37:04;26.30;22.90
20610;DHT22;10463;52.378;9.688;2023-04-24T16:39:51;26.20;22.90
20610;DHT22;10463;52.378;9.688;2023-04-24T16:42:38;26.30;22.90
20610;DHT22;10463;52.378;9.688;2023-04-24T16:45:23;26.30;22.90
20610;DHT22;10463;52.378;9.688;2023-04-24T16:48:08;26.20;22.90
20610;DHT22;10463;52.378;9.688;2023-04-24T16:50:54;26.30;22.90
20610;DHT22;10463;52.378;9.688;2023-04-24T16:53:39;26.20;22.90
20610;DHT22;10463;52.378;9.688;2023-04-24T16:56:26;26.20;22.90
20610;DHT22;10463;52.378;9.688;2023-04-24T16:59:11;26.20;22.90
20610;DHT22;10463;52.378;9.688;2023-04-24T17:01:56;26.20;22.90
20610;DHT22;10463;52.378;9.688;2023-04-24T17:04:40;26.20;22.90
20610;DHT22;10463;52.378;9.688;2023-04-24T17:07:25;26.20;22.90
20610;DHT22;10463;52.378;9.688;2023-04-24T17:10:10;26.20;22.90
20610;DHT22;10463;52.378;9.688;2023-04-24T17:12:57;26.20;22.90
20610;DHT22;10463;52.378;9.688;2023-04-24T17:15:43;26.20;22.90
20610;DHT22;10463;52.378;9.688;2023-04-24T17:18:28;26.20;23.40
20610;DHT22;10463;52.378;9.688;2023-04-24T17:21:12;26.20;22.90
20610;DHT22;10463;52.378;9.688;2023-04-24T17:23:57;26.20;22.90
20610;DHT22;10463;52.378;9.688;2023-04-24T17:26:42;26.20;22.90
20610;DHT22;10463;52.378;9.688;2023-04-24T17:29:28;26.20;22.90